Terminal Aerodrome Forecast
Issued by NWS

Home | Current Version | Previous Version | Graphics & Text | Print | Product List | Glossary On
Versions: 1 2 3 4 5 6 7 8 9 10 11 12 13 14 15 16 17 18 19 20 21
000
FTUS41 KCLE 240528
TAFFDY
TAF
KFDY 240528Z 2406/2506 15007KT P6SM -SHRA OVC050
     FM240700 19012KT P6SM SCT120 OVC200 WS020/23050KT
     FM241600 21015G25KT P6SM BKN250
     FM250000 21010G20KT P6SM OVC025
     FM250500 21008KT P6SM OVC035=

USA.gov is the U.S. government's official web portal to all federal, state and local government web resources and services.